Time;durP1;ratioP1;P1;durP2;ratioP2;P2;SDS_P1;SDS_P2;PMS_P1;PMS_P2;Temp;Humidity;BMP_temperature;BMP_pressure;BME280_temperature;BME280_humidity;BME280_pressure;Samples;Min_cycle;Max_cycle;Signal;HPM_P1;HPM_P2
2022/05/22 00:02:05;;;;;;;12.98;4.03;;;;;;;;;;5024000;28;20040;-60
2022/05/22 00:04:31;;;;;;;13.55;4.80;;;;;;;;;;5014406;28;20426;-60
2022/05/22 00:06:57;;;;;;;9.63;4.70;;;;;;;;;;5019109;28;20029;-60
2022/05/22 00:09:23;;;;;;;13.40;4.43;;;;;;;;;;5034404;28;20033;-60
2022/05/22 00:11:49;;;;;;;8.93;4.25;;;;;;;;;;5014112;28;20036;-60
2022/05/22 00:14:18;;;;;;;8.77;3.80;;;;;;;;;;5018182;28;20071;-60
2022/05/22 00:16:46;;;;;;;7.80;3.88;;;;;;;;;;5029433;28;20036;-60
2022/05/22 00:19:27;;;;;;;12.02;4.25;;;;;;;;;;5032754;28;20168;-61
2022/05/22 00:21:52;;;;;;;11.60;4.80;;;;;;;;;;5028584;28;20155;-61
2022/05/22 00:24:20;;;;;;;14.63;4.85;;;;;;;;;;5032018;28;20304;-61
2022/05/22 00:26:47;;;;;;;8.32;4.55;;;;;;;;;;5025412;28;20065;-61
2022/05/22 00:29:13;;;;;;;10.75;4.78;;;;;;;;;;5019573;28;20037;-60
2022/05/22 00:31:39;;;;;;;10.48;4.60;;;;;;;;;;5021571;28;20029;-61
2022/05/22 00:34:05;;;;;;;13.43;5.35;;;;;;;;;;5033801;28;20432;-61
2022/05/22 00:36:30;;;;;;;10.93;5.32;;;;;;;;;;5029886;28;20029;-60
2022/05/22 00:38:56;;;;;;;12.73;5.65;;;;;;;;;;5016413;28;20172;-60
2022/05/22 00:41:22;;;;;;;11.65;5.50;;;;;;;;;;5025666;28;20030;-61
2022/05/22 00:43:52;;;;;;;12.93;5.65;;;;;;;;;;5031167;28;20060;-60
2022/05/22 00:46:20;;;;;;;12.50;7.03;;;;;;;;;;5030572;28;20060;-60
2022/05/22 00:48:49;;;;;;;10.95;5.03;;;;;;;;;;5012764;28;20078;-61
2022/05/22 00:51:22;;;;;;;11.27;5.40;;;;;;;;;;5013790;28;20427;-60
2022/05/22 00:53:58;;;;;;;11.25;5.38;;;;;;;;;;5012986;28;20036;-60
2022/05/22 00:56:33;;;;;;;14.68;5.60;;;;;;;;;;5022404;28;20485;-61
2022/05/22 00:58:59;;;;;;;12.20;5.63;;;;;;;;;;5031186;28;20039;-60
2022/05/22 01:01:24;;;;;;;9.90;5.40;;;;;;;;;;5028096;28;20033;-60
2022/05/22 01:03:50;;;;;;;9.63;5.55;;;;;;;;;;5031720;28;20116;-61
2022/05/22 01:06:20;;;;;;;12.68;5.43;;;;;;;;;;5015114;28;20377;-61
2022/05/22 01:08:47;;;;;;;11.32;5.60;;;;;;;;;;5031303;28;20049;-61
2022/05/22 01:11:24;;;;;;;14.45;5.75;;;;;;;;;;5032627;28;20076;-61
2022/05/22 01:13:54;;;;;;;11.57;5.95;;;;;;;;;;5016778;28;20478;-61
2022/05/22 01:16:20;;;;;;;15.60;6.55;;;;;;;;;;5031123;28;20884;-61
2022/05/22 01:18:49;;;;;;;13.07;6.60;;;;;;;;;;5030707;28;20044;-60
2022/05/22 01:21:19;;;;;;;14.75;6.90;;;;;;;;;;5030105;28;20041;-61
2022/05/22 01:23:45;;;;;;;12.60;6.30;;;;;;;;;;5011052;28;20025;-61
2022/05/22 01:26:11;;;;;;;11.43;6.70;;;;;;;;;;5029541;28;20044;-61
2022/05/22 01:28:37;;;;;;;13.23;6.55;;;;;;;;;;5022887;28;20042;-60
2022/05/22 01:31:03;;;;;;;12.45;6.93;;;;;;;;;;5023491;28;20060;-60
2022/05/22 01:33:28;;;;;;;15.98;7.03;;;;;;;;;;5012410;28;20034;-61
2022/05/22 01:35:54;;;;;;;10.77;6.82;;;;;;;;;;5011697;28;20482;-61
2022/05/22 01:38:20;;;;;;;12.95;7.10;;;;;;;;;;5024147;28;20029;-61
2022/05/22 01:40:46;;;;;;;12.68;6.70;;;;;;;;;;5022631;28;20042;-61
2022/05/22 01:43:12;;;;;;;14.77;7.20;;;;;;;;;;5013176;28;20451;-60
2022/05/22 01:45:41;;;;;;;15.32;7.05;;;;;;;;;;5028154;28;20116;-61
2022/05/22 01:48:07;;;;;;;15.32;7.22;;;;;;;;;;5016633;28;20533;-61
2022/05/22 01:50:33;;;;;;;13.88;7.25;;;;;;;;;;5028655;28;20132;-61
2022/05/22 01:52:59;;;;;;;9.82;6.57;;;;;;;;;;5027787;28;20033;-61
2022/05/22 01:55:24;;;;;;;14.15;6.70;;;;;;;;;;5031477;28;20195;-61
2022/05/22 01:57:50;;;;;;;12.52;6.95;;;;;;;;;;5028294;28;20037;-61
2022/05/22 02:00:19;;;;;;;12.05;6.85;;;;;;;;;;5031263;28;20033;-61
2022/05/22 02:02:46;;;;;;;13.82;7.00;;;;;;;;;;5010014;28;20383;-61
2022/05/22 02:05:12;;;;;;;13.40;7.15;;;;;;;;;;5012223;28;20034;-60
2022/05/22 02:10:23;;;;;;;14.23;6.93;;;;;;;;;;5030605;28;20040;-61
2022/05/22 02:12:48;;;;;;;11.95;7.05;;;;;;;;;;5011353;28;20470;-61
2022/05/22 02:15:13;;;;;;;15.23;7.28;;;;;;;;;;5012403;28;20045;-61
2022/05/22 02:17:39;;;;;;;14.50;6.93;;;;;;;;;;5026475;28;20035;-59
2022/05/22 02:20:05;;;;;;;14.32;7.00;;;;;;;;;;5028729;28;20045;-62
2022/05/22 02:22:30;;;;;;;13.90;6.90;;;;;;;;;;5030239;28;20394;-59
2022/05/22 02:24:56;;;;;;;13.95;7.07;;;;;;;;;;5030190;28;20036;-61
2022/05/22 02:27:21;;;;;;;14.90;7.10;;;;;;;;;;5013093;28;20483;-59
2022/05/22 02:29:47;;;;;;;15.07;7.13;;;;;;;;;;5012733;28;20112;-61
2022/05/22 02:32:13;;;;;;;10.95;7.03;;;;;;;;;;5027741;28;20064;-61
2022/05/22 02:34:38;;;;;;;12.70;6.72;;;;;;;;;;5014363;28;20028;-60
2022/05/22 02:37:04;;;;;;;11.70;6.75;;;;;;;;;;5029829;28;20033;-60
2022/05/22 02:39:31;;;;;;;14.88;7.55;;;;;;;;;;5031230;28;20040;-61
2022/05/22 02:42:04;;;;;;;16.13;7.30;;;;;;;;;;5010428;28;20041;-60
2022/05/22 02:44:30;;;;;;;11.70;7.10;;;;;;;;;;5025273;28;20045;-61
2022/05/22 02:46:55;;;;;;;15.10;7.57;;;;;;;;;;4992950;28;20117;-60
2022/05/22 02:49:20;;;;;;;16.30;7.43;;;;;;;;;;5012054;28;20050;-60
2022/05/22 02:51:46;;;;;;;14.80;8.15;;;;;;;;;;5010328;28;20061;-61
2022/05/22 02:54:11;;;;;;;13.20;7.63;;;;;;;;;;5031156;28;20045;-61
2022/05/22 02:56:36;;;;;;;12.98;7.70;;;;;;;;;;5012949;28;20040;-61
2022/05/22 02:59:02;;;;;;;16.27;7.57;;;;;;;;;;5028825;28;20276;-61
2022/05/22 03:01:27;;;;;;;14.70;7.80;;;;;;;;;;5013421;28;20061;-60
2022/05/22 03:03:53;;;;;;;14.40;6.90;;;;;;;;;;5022546;28;20030;-61
2022/05/22 03:09:03;;;;;;;12.02;7.10;;;;;;;;;;5028050;28;20040;-60
2022/05/22 03:11:28;;;;;;;10.15;6.25;;;;;;;;;;5031176;28;20038;-61
2022/05/22 03:13:54;;;;;;;14.23;6.65;;;;;;;;;;5010232;28;20104;-61
2022/05/22 03:16:19;;;;;;;12.45;6.68;;;;;;;;;;5015217;28;20390;-60
2022/05/22 03:18:45;;;;;;;13.25;6.82;;;;;;;;;;5009652;28;20045;-60
2022/05/22 03:21:12;;;;;;;12.85;6.40;;;;;;;;;;5010513;28;20022;-61
2022/05/22 03:23:38;;;;;;;14.77;6.10;;;;;;;;;;5020288;28;20037;-60
2022/05/22 03:26:03;;;;;;;12.85;6.18;;;;;;;;;;5029214;28;20470;-60
2022/05/22 03:28:29;;;;;;;12.13;5.97;;;;;;;;;;5033601;28;20458;-60
2022/05/22 03:30:54;;;;;;;11.07;5.75;;;;;;;;;;5025025;28;20442;-60
2022/05/22 03:33:20;;;;;;;12.45;5.90;;;;;;;;;;5025235;28;20040;-61
2022/05/22 03:35:45;;;;;;;12.90;5.70;;;;;;;;;;5033862;28;20342;-60
2022/05/22 03:38:10;;;;;;;11.90;6.00;;;;;;;;;;5031592;28;20033;-63
2022/05/22 03:40:47;;;;;;;15.13;6.32;;;;;;;;;;5033570;28;20033;-60
2022/05/22 03:43:17;;;;;;;13.80;6.25;;;;;;;;;;5032435;28;20028;-60
2022/05/22 03:45:43;;;;;;;12.48;6.20;;;;;;;;;;5023700;28;20095;-60
2022/05/22 03:48:09;;;;;;;13.13;6.38;;;;;;;;;;5014379;28;20038;-60
2022/05/22 03:50:34;;;;;;;14.80;6.68;;;;;;;;;;5019189;28;20046;-61
2022/05/22 03:53:00;;;;;;;15.40;6.53;;;;;;;;;;5022191;28;20037;-60
2022/05/22 03:55:25;;;;;;;14.75;7.25;;;;;;;;;;5030841;28;20045;-61
2022/05/22 03:57:51;;;;;;;11.73;6.97;;;;;;;;;;5014661;28;20038;-61
2022/05/22 04:00:19;;;;;;;13.80;6.55;;;;;;;;;;5031868;28;20075;-60
2022/05/22 04:02:45;;;;;;;13.68;6.72;;;;;;;;;;5032814;28;20039;-60
2022/05/22 04:05:10;;;;;;;11.90;6.82;;;;;;;;;;5031821;28;20025;-61
2022/05/22 04:07:44;;;;;;;14.25;7.60;;;;;;;;;;5034389;28;20105;-61
2022/05/22 04:10:11;;;;;;;11.40;7.20;;;;;;;;;;5013402;28;20526;-60
2022/05/22 04:12:38;;;;;;;12.90;7.18;;;;;;;;;;5032770;28;20040;-61
2022/05/22 04:15:08;;;;;;;15.45;7.82;;;;;;;;;;5032647;28;20457;-61
2022/05/22 04:17:34;;;;;;;20.38;7.57;;;;;;;;;;5030132;28;20038;-61
2022/05/22 04:20:00;;;;;;;13.68;7.18;;;;;;;;;;5030983;28;20072;-61
2022/05/22 04:22:25;;;;;;;13.68;6.70;;;;;;;;;;5032852;28;20069;-60
2022/05/22 04:27:40;;;;;;;12.70;6.47;;;;;;;;;;5032477;28;20041;-61
2022/05/22 04:30:07;;;;;;;14.35;6.95;;;;;;;;;;5013291;28;20116;-61
2022/05/22 04:32:32;;;;;;;13.80;6.68;;;;;;;;;;5013219;28;20129;-61
2022/05/22 04:34:58;;;;;;;12.50;6.70;;;;;;;;;;5012628;28;20122;-61
2022/05/22 04:37:23;;;;;;;15.88;6.43;;;;;;;;;;5026213;28;20059;-60
2022/05/22 04:39:49;;;;;;;12.32;6.18;;;;;;;;;;5031211;28;20116;-61
2022/05/22 04:42:14;;;;;;;14.05;6.53;;;;;;;;;;5027764;28;20029;-61
2022/05/22 04:44:40;;;;;;;12.82;6.38;;;;;;;;;;5014203;28;20033;-61
2022/05/22 04:47:05;;;;;;;10.18;5.85;;;;;;;;;;5015746;28;20033;-61
2022/05/22 04:49:31;;;;;;;10.63;5.57;;;;;;;;;;5007760;28;20093;-61
2022/05/22 04:51:59;;;;;;;12.55;6.30;;;;;;;;;;5032256;28;20041;-61
2022/05/22 04:54:25;;;;;;;14.27;6.40;;;;;;;;;;5032043;28;20103;-61
2022/05/22 04:56:53;;;;;;;11.80;6.20;;;;;;;;;;5033256;28;20025;-61
2022/05/22 04:59:18;;;;;;;14.13;7.63;;;;;;;;;;5027408;28;20041;-61
2022/05/22 05:01:44;;;;;;;11.27;6.28;;;;;;;;;;5031016;28;20377;-61
2022/05/22 05:04:11;;;;;;;15.50;6.07;;;;;;;;;;5020408;28;20018;-61
2022/05/22 05:06:37;;;;;;;13.73;6.30;;;;;;;;;;5015068;28;22217;-64
2022/05/22 05:09:03;;;;;;;14.38;6.18;;;;;;;;;;5031719;28;20086;-61
2022/05/22 05:11:28;;;;;;;12.55;5.97;;;;;;;;;;5032471;28;20060;-61
2022/05/22 05:13:54;;;;;;;11.98;6.32;;;;;;;;;;5032563;28;20052;-61
2022/05/22 05:16:19;;;;;;;12.00;6.20;;;;;;;;;;5032599;28;20462;-60
2022/05/22 05:18:45;;;;;;;12.23;6.45;;;;;;;;;;5031910;28;20041;-60
2022/05/22 05:21:12;;;;;;;14.65;6.45;;;;;;;;;;5032522;28;20642;-60
2022/05/22 05:23:39;;;;;;;13.23;6.50;;;;;;;;;;5013240;28;20437;-60
2022/05/22 05:26:04;;;;;;;13.68;6.25;;;;;;;;;;5021801;28;21303;-60
2022/05/22 05:28:31;;;;;;;13.82;6.32;;;;;;;;;;5027570;28;20488;-60
2022/05/22 05:30:57;;;;;;;12.32;5.57;;;;;;;;;;5031231;28;20047;-60
2022/05/22 05:33:22;;;;;;;9.95;5.82;;;;;;;;;;5033146;28;20033;-60
2022/05/22 05:35:48;;;;;;;12.50;5.75;;;;;;;;;;5022141;28;20056;-60
2022/05/22 05:38:13;;;;;;;10.30;5.70;;;;;;;;;;4994834;28;20030;-60
2022/05/22 05:40:39;;;;;;;11.90;5.32;;;;;;;;;;5026856;28;20079;-60
2022/05/22 05:43:05;;;;;;;15.00;5.82;;;;;;;;;;5031129;28;20037;-60
2022/05/22 05:45:30;;;;;;;13.75;5.40;;;;;;;;;;5032625;28;20340;-60
2022/05/22 05:47:57;;;;;;;12.10;5.13;;;;;;;;;;5030553;28;20028;-59
2022/05/22 05:50:25;;;;;;;9.50;4.97;;;;;;;;;;5030773;28;20084;-60
2022/05/22 05:52:53;;;;;;;8.80;5.00;;;;;;;;;;5032270;28;20029;-61
2022/05/22 05:55:19;;;;;;;10.82;4.90;;;;;;;;;;5032180;28;20038;-61
2022/05/22 05:57:45;;;;;;;12.80;4.82;;;;;;;;;;5024040;28;20505;-61
2022/05/22 06:00:16;;;;;;;11.35;5.30;;;;;;;;;;5011870;28;20065;-60
2022/05/22 06:02:42;;;;;;;10.93;4.93;;;;;;;;;;5019522;28;20065;-60
2022/05/22 06:05:09;;;;;;;8.52;4.60;;;;;;;;;;5031686;28;20041;-61
2022/05/22 06:07:35;;;;;;;8.00;4.22;;;;;;;;;;5025550;28;20033;-60
2022/05/22 06:10:00;;;;;;;8.38;4.30;;;;;;;;;;5016798;28;20045;-60
2022/05/22 06:12:26;;;;;;;7.45;3.97;;;;;;;;;;5018473;28;20044;-60
2022/05/22 06:14:52;;;;;;;10.30;4.10;;;;;;;;;;5032318;28;20025;-60
2022/05/22 06:17:17;;;;;;;8.10;3.95;;;;;;;;;;5016523;28;20034;-61
2022/05/22 06:19:54;;;;;;;9.50;4.22;;;;;;;;;;5027273;28;20036;-61
2022/05/22 06:22:21;;;;;;;13.07;4.43;;;;;;;;;;5014247;28;20037;-61
2022/05/22 06:24:47;;;;;;;12.15;4.90;;;;;;;;;;5008858;28;20477;-61
2022/05/22 06:27:13;;;;;;;8.60;4.20;;;;;;;;;;5027852;28;20033;-61
2022/05/22 06:29:40;;;;;;;9.73;4.63;;;;;;;;;;5011920;28;20092;-61
2022/05/22 06:32:07;;;;;;;7.97;4.20;;;;;;;;;;5026407;28;20045;-60
2022/05/22 06:34:36;;;;;;;10.38;4.78;;;;;;;;;;5018180;28;20029;-60
2022/05/22 06:37:03;;;;;;;10.73;4.57;;;;;;;;;;5019123;28;20390;-60
2022/05/22 06:42:14;;;;;;;10.82;4.80;;;;;;;;;;5023593;28;20231;-61
2022/05/22 06:44:40;;;;;;;9.48;5.00;;;;;;;;;;5019888;28;20040;-60
2022/05/22 06:47:06;;;;;;;10.73;4.40;;;;;;;;;;5015821;28;20029;-60
2022/05/22 06:49:31;;;;;;;12.27;4.25;;;;;;;;;;5019604;28;20064;-61
2022/05/22 06:51:58;;;;;;;9.18;4.30;;;;;;;;;;5030265;28;20033;-61
2022/05/22 06:54:24;;;;;;;7.70;3.88;;;;;;;;;;5030495;28;20022;-61
2022/05/22 06:56:49;;;;;;;9.85;4.13;;;;;;;;;;5018148;28;20052;-61
2022/05/22 06:59:15;;;;;;;9.85;3.92;;;;;;;;;;5010948;28;20652;-61
2022/05/22 07:01:40;;;;;;;10.70;4.28;;;;;;;;;;5030121;28;20125;-61
2022/05/22 07:04:05;;;;;;;9.77;4.00;;;;;;;;;;5005500;28;20052;-61
2022/05/22 07:06:31;;;;;;;11.23;4.15;;;;;;;;;;5024079;28;20027;-60
2022/05/22 07:08:56;;;;;;;6.30;3.70;;;;;;;;;;5009415;28;20425;-62
2022/05/22 07:11:40;;;;;;;9.85;3.90;;;;;;;;;;5018130;28;20040;-61
2022/05/22 07:14:12;;;;;;;7.93;4.18;;;;;;;;;;5003646;28;20025;-60
2022/05/22 07:16:38;;;;;;;11.43;4.03;;;;;;;;;;5028534;28;20120;-61
2022/05/22 07:19:05;;;;;;;7.30;3.92;;;;;;;;;;5021090;28;20496;-61
2022/05/22 07:21:31;;;;;;;12.45;4.03;;;;;;;;;;5030693;28;20394;-60
2022/05/22 07:23:59;;;;;;;7.72;3.58;;;;;;;;;;5023384;28;20087;-61
2022/05/22 07:26:26;;;;;;;11.50;3.60;;;;;;;;;;5011359;28;20125;-61
2022/05/22 07:28:52;;;;;;;7.15;3.08;;;;;;;;;;5013113;28;20034;-61
2022/05/22 07:31:20;;;;;;;5.93;3.20;;;;;;;;;;5010574;28;20096;-61
2022/05/22 07:33:54;;;;;;;10.60;3.20;;;;;;;;;;5029255;28;20040;-61
2022/05/22 07:36:20;;;;;;;8.88;3.03;;;;;;;;;;5022676;28;20641;-61
2022/05/22 07:38:47;;;;;;;8.02;3.05;;;;;;;;;;5030654;28;20037;-61
2022/05/22 07:41:13;;;;;;;10.77;2.80;;;;;;;;;;5023031;28;20040;-61
2022/05/22 07:43:39;;;;;;;6.65;3.20;;;;;;;;;;4997165;28;20121;-61
2022/05/22 07:46:05;;;;;;;8.55;2.95;;;;;;;;;;5028121;28;20466;-60
2022/05/22 07:48:31;;;;;;;8.23;2.90;;;;;;;;;;5030734;28;20037;-61
2022/05/22 07:50:59;;;;;;;8.20;2.97;;;;;;;;;;5029048;28;20532;-62
2022/05/22 07:53:26;;;;;;;7.97;2.50;;;;;;;;;;5010097;28;20037;-61
2022/05/22 07:55:51;;;;;;;7.00;3.08;;;;;;;;;;5016447;28;20458;-61
2022/05/22 07:58:18;;;;;;;10.07;3.17;;;;;;;;;;5025748;28;20051;-60
2022/05/22 08:00:44;;;;;;;10.45;3.00;;;;;;;;;;5011523;28;20034;-61
2022/05/22 08:03:11;;;;;;;6.38;2.67;;;;;;;;;;5024904;28;20044;-60
2022/05/22 08:05:37;;;;;;;7.45;2.60;;;;;;;;;;5013462;28;20435;-61
2022/05/22 08:08:03;;;;;;;7.50;2.92;;;;;;;;;;5028711;28;20116;-61
2022/05/22 08:10:28;;;;;;;10.55;2.80;;;;;;;;;;5031971;28;20061;-60
2022/05/22 08:12:54;;;;;;;8.60;2.47;;;;;;;;;;5034648;28;20052;-60
2022/05/22 08:15:23;;;;;;;5.28;2.20;;;;;;;;;;5013890;28;20049;-59
2022/05/22 08:17:48;;;;;;;5.03;2.50;;;;;;;;;;5033539;28;20060;-60
2022/05/22 08:20:16;;;;;;;8.13;2.70;;;;;;;;;;5032375;28;20068;-60
2022/05/22 08:22:46;;;;;;;13.80;2.60;;;;;;;;;;5000582;28;20034;-61
2022/05/22 08:25:17;;;;;;;7.70;2.65;;;;;;;;;;5021744;28;20025;-59
2022/05/22 08:27:43;;;;;;;7.90;2.75;;;;;;;;;;5022439;28;20478;-60
2022/05/22 08:30:11;;;;;;;7.95;2.58;;;;;;;;;;5026177;28;20045;-59
2022/05/22 08:32:37;;;;;;;8.55;2.70;;;;;;;;;;5034033;28;20060;-60
2022/05/22 08:35:04;;;;;;;7.07;2.55;;;;;;;;;;5014943;28;20049;-59
2022/05/22 08:37:29;;;;;;;7.82;2.72;;;;;;;;;;5033835;28;20033;-61
2022/05/22 08:39:55;;;;;;;8.27;2.83;;;;;;;;;;5028129;28;20037;-60
2022/05/22 08:42:30;;;;;;;8.07;2.67;;;;;;;;;;5016775;28;20057;-61
2022/05/22 08:44:56;;;;;;;8.55;2.85;;;;;;;;;;5014381;28;20088;-61
2022/05/22 08:47:31;;;;;;;8.00;2.63;;;;;;;;;;5019052;28;20360;-61
2022/05/22 08:50:07;;;;;;;7.15;2.63;;;;;;;;;;5017300;28;20477;-60
2022/05/22 08:52:46;;;;;;;9.10;2.80;;;;;;;;;;5026220;28;20046;-61
2022/05/22 09:01:16;;;;;;;7.28;2.53;;;;;;;;;;5012435;28;20037;-59
2022/05/22 09:03:57;;;;;;;9.13;2.70;;;;;;;;;;5013361;28;20050;-60
2022/05/22 09:06:54;;;;;;;7.93;3.05;;;;;;;;;;5011305;28;20029;-60
2022/05/22 09:09:19;;;;;;;6.28;2.80;;;;;;;;;;5013232;28;20033;-61
2022/05/22 09:11:50;;;;;;;7.38;2.83;;;;;;;;;;5013146;28;20029;-60
2022/05/22 09:14:43;;;;;;;7.95;3.17;;;;;;;;;;5018256;28;20037;-60
2022/05/22 09:17:17;;;;;;;7.72;2.80;;;;;;;;;;5012752;28;20033;-60
2022/05/22 09:20:27;;;;;;;8.25;3.15;;;;;;;;;;5024774;28;20037;-60
2022/05/22 09:23:12;;;;;;;7.82;3.88;;;;;;;;;;5020659;28;20048;-61
2022/05/22 09:25:53;;;;;;;9.70;3.50;;;;;;;;;;5046394;28;20407;-61
2022/05/22 09:28:29;;;;;;;11.55;3.53;;;;;;;;;;5029523;28;20120;-61
2022/05/22 09:31:36;;;;;;;11.10;3.53;;;;;;;;;;5032725;28;20037;-61
2022/05/22 09:34:31;;;;;;;7.20;3.28;;;;;;;;;;4969995;28;20057;-61
2022/05/22 09:36:56;;;;;;;7.38;3.15;;;;;;;;;;4970106;28;20038;-62
2022/05/22 09:39:27;;;;;;;11.18;4.47;;;;;;;;;;4955465;28;20143;-62
2022/05/22 09:41:52;;;;;;;8.85;3.60;;;;;;;;;;4966825;28;20030;-61
2022/05/22 09:44:33;;;;;;;8.40;3.72;;;;;;;;;;4971703;28;20056;-61
2022/05/22 09:47:28;;;;;;;11.10;3.83;;;;;;;;;;5032731;28;20037;-62
2022/05/22 09:49:53;;;;;;;8.95;3.70;;;;;;;;;;5026274;28;20091;-62
2022/05/22 09:52:46;;;;;;;8.02;3.88;;;;;;;;;;5031182;28;20438;-61
2022/05/22 09:55:26;;;;;;;9.60;3.80;;;;;;;;;;5031574;28;20112;-62
2022/05/22 09:58:24;;;;;;;8.43;3.95;;;;;;;;;;5015641;28;20033;-62
2022/05/22 10:01:10;;;;;;;10.13;4.65;;;;;;;;;;5023193;28;20038;-62
2022/05/22 10:03:50;;;;;;;12.60;5.00;;;;;;;;;;5016248;28;20095;-62
2022/05/22 10:06:37;;;;;;;10.93;5.18;;;;;;;;;;5012404;28;20386;-62
2022/05/22 10:09:21;;;;;;;11.73;4.72;;;;;;;;;;5031927;28;20087;-62
2022/05/22 10:12:37;;;;;;;12.35;4.60;;;;;;;;;;5012725;28;20440;-62
2022/05/22 10:15:24;;;;;;;13.00;4.65;;;;;;;;;;5009885;28;20042;-62
2022/05/22 10:18:07;;;;;;;13.02;5.18;;;;;;;;;;5021345;28;20389;-62
2022/05/22 10:21:05;;;;;;;10.38;4.80;;;;;;;;;;5031991;28;20091;-62
2022/05/22 10:23:42;;;;;;;11.20;5.03;;;;;;;;;;5030089;28;20040;-61
2022/05/22 10:26:16;;;;;;;13.25;5.00;;;;;;;;;;5030798;28;20397;-60
2022/05/22 10:28:58;;;;;;;10.52;4.70;;;;;;;;;;5031901;28;20036;-61
2022/05/22 10:31:34;;;;;;;12.38;5.05;;;;;;;;;;5013948;28;20038;-60
2022/05/22 10:34:09;;;;;;;7.65;4.65;;;;;;;;;;5010715;28;20526;-61
2022/05/22 10:36:41;;;;;;;11.25;4.40;;;;;;;;;;5011687;28;20034;-60
2022/05/22 10:39:10;;;;;;;10.73;4.80;;;;;;;;;;5012168;28;20486;-60
2022/05/22 10:44:32;;;;;;;9.32;4.57;;;;;;;;;;5013902;28;20045;-62
2022/05/22 10:47:02;;;;;;;9.50;4.90;;;;;;;;;;5011712;28;20022;-62
2022/05/22 10:49:39;;;;;;;11.20;5.10;;;;;;;;;;5003013;28;20114;-61
2022/05/22 10:52:07;;;;;;;8.45;4.15;;;;;;;;;;5030916;28;20037;-61
2022/05/22 10:54:41;;;;;;;7.68;3.78;;;;;;;;;;5030365;28;20076;-61
2022/05/22 10:57:14;;;;;;;8.30;4.32;;;;;;;;;;5023058;28;20037;-60
2022/05/22 10:59:39;;;;;;;9.02;4.50;;;;;;;;;;5029559;28;20033;-61
2022/05/22 11:02:15;;;;;;;8.93;4.47;;;;;;;;;;5030667;28;20044;-61
2022/05/22 11:04:43;;;;;;;12.35;5.05;;;;;;;;;;5011121;28;20060;-60
2022/05/22 11:07:09;;;;;;;14.05;4.20;;;;;;;;;;5011488;28;20359;-59
2022/05/22 11:09:47;;;;;;;9.40;4.50;;;;;;;;;;5019580;28;20104;-60
2022/05/22 11:12:19;;;;;;;9.55;4.00;;;;;;;;;;5022234;28;20113;-59
2022/05/22 11:14:45;;;;;;;8.82;4.20;;;;;;;;;;5030858;28;20503;-61
2022/05/22 11:17:22;;;;;;;11.30;3.97;;;;;;;;;;5030112;28;20034;-59
2022/05/22 11:19:55;;;;;;;9.43;4.28;;;;;;;;;;5025292;28;20386;-60
2022/05/22 11:22:27;;;;;;;9.43;4.43;;;;;;;;;;5023282;28;20053;-59
2022/05/22 11:25:29;;;;;;;9.30;3.97;;;;;;;;;;5023354;28;20589;-60
2022/05/22 11:28:26;;;;;;;11.00;3.95;;;;;;;;;;5011475;28;20026;-61
2022/05/22 11:31:22;;;;;;;8.27;4.30;;;;;;;;;;5010150;28;20399;-60
2022/05/22 11:33:57;;;;;;;12.90;4.38;;;;;;;;;;5009747;28;20053;-59
2022/05/22 11:36:37;;;;;;;10.18;4.68;;;;;;;;;;5022527;28;20064;-62
2022/05/22 11:39:03;;;;;;;9.23;4.43;;;;;;;;;;5011520;28;20026;-61
2022/05/22 11:41:34;;;;;;;8.15;4.55;;;;;;;;;;5022572;28;20587;-61
2022/05/22 11:44:06;;;;;;;10.27;4.35;;;;;;;;;;5031263;28;20458;-61
2022/05/22 11:46:45;;;;;;;8.70;4.18;;;;;;;;;;5033314;28;20113;-61
2022/05/22 11:49:16;;;;;;;7.75;3.90;;;;;;;;;;5009521;28;20394;-61
2022/05/22 11:51:59;;;;;;;;;;;;;;;;;;5035138;28;20120;-59
2022/05/22 11:54:43;;;;;;;8.30;4.15;;;;;;;;;;5032488;28;19925;-62
2022/05/22 11:57:38;;;;;;;7.68;3.60;;;;;;;;;;5033909;28;20076;-61
2022/05/22 12:00:12;;;;;;;8.02;3.85;;;;;;;;;;5014763;28;20557;-61
2022/05/22 12:03:20;;;;;;;8.82;3.83;;;;;;;;;;5016270;28;20044;-60
2022/05/22 12:06:05;;;;;;;8.88;3.75;;;;;;;;;;5030782;28;20184;-59
2022/05/22 12:08:49;;;;;;;9.32;3.67;;;;;;;;;;5023848;28;20155;-59
2022/05/22 12:11:33;;;;;;;8.80;3.80;;;;;;;;;;5020977;28;20124;-59
2022/05/22 12:14:29;;;;;;;8.05;3.35;;;;;;;;;;5033166;28;20078;-60
2022/05/22 12:17:05;;;;;;;7.20;3.60;;;;;;;;;;5034003;28;20033;-60
2022/05/22 12:19:49;;;;;;;9.45;3.67;;;;;;;;;;5028812;28;20390;-61
2022/05/22 12:25:24;;;;;;;8.65;3.65;;;;;;;;;;5032162;28;20048;-61
2022/05/22 12:27:52;;;;;;;7.43;3.13;;;;;;;;;;5031405;28;20124;-60
2022/05/22 12:30:40;;;;;;;9.30;3.22;;;;;;;;;;5031222;28;20041;-59
2022/05/22 12:33:14;;;;;;;6.68;3.10;;;;;;;;;;5030581;28;20041;-61
2022/05/22 12:35:42;;;;;;;6.35;3.50;;;;;;;;;;5024868;28;20033;-60
2022/05/22 12:38:12;;;;;;;6.43;3.25;;;;;;;;;;5032042;28;20037;-59
2022/05/22 12:40:50;;;;;;;7.43;3.33;;;;;;;;;;5027118;28;20037;-60
2022/05/22 12:43:18;;;;;;;9.02;3.50;;;;;;;;;;5032619;28;20482;-59
2022/05/22 12:45:53;;;;;;;7.75;3.83;;;;;;;;;;5032543;28;20473;-60
2022/05/22 12:48:34;;;;;;;9.38;3.70;;;;;;;;;;5009909;28;20029;-59
2022/05/22 12:51:34;;;;;;;7.65;3.25;;;;;;;;;;5031334;28;20047;-60
2022/05/22 12:54:21;;;;;;;7.32;3.08;;;;;;;;;;5018733;28;20120;-61
2022/05/22 12:56:47;;;;;;;7.97;3.50;;;;;;;;;;5039472;28;20049;-60
2022/05/22 12:59:27;;;;;;;8.02;3.75;;;;;;;;;;5033599;28;20048;-61
2022/05/22 13:01:55;;;;;;;9.50;4.00;;;;;;;;;;5030212;28;20028;-60
2022/05/22 13:05:00;;;;;;;7.75;3.72;;;;;;;;;;5031521;28;20116;-60
2022/05/22 13:07:32;;;;;;;7.57;3.50;;;;;;;;;;4949545;29;20493;-60
2022/05/22 13:09:58;;;;;;;8.90;3.88;;;;;;;;;;4948899;28;20451;-60
2022/05/22 13:12:27;;;;;;;7.35;3.65;;;;;;;;;;4950779;29;20035;-62
2022/05/22 13:15:06;;;;;;;7.22;3.65;;;;;;;;;;4951257;29;20067;-61
2022/05/22 13:17:31;;;;;;;7.93;3.38;;;;;;;;;;4951177;29;20050;-61
2022/05/22 13:20:02;;;;;;;7.65;3.15;;;;;;;;;;4952164;29;20054;-61
2022/05/22 13:22:39;;;;;;;9.18;3.30;;;;;;;;;;4950987;29;20039;-62
2022/05/22 13:25:25;;;;;;;9.50;3.20;;;;;;;;;;4950119;29;20055;-61
2022/05/22 13:27:51;;;;;;;9.57;3.58;;;;;;;;;;4951443;29;20066;-61
2022/05/22 13:30:21;;;;;;;8.15;3.47;;;;;;;;;;4936362;29;20035;-60
2022/05/22 13:32:49;;;;;;;;;;;;;;;;;;4952090;29;20070;-59
2022/05/22 13:35:20;;;;;;;9.68;4.05;;;;;;;;;;4952441;29;19911;-59
2022/05/22 13:37:49;;;;;;;16.17;11.95;;;;;;;;;;4971167;28;20048;-60
2022/05/22 13:40:38;;;;;;;9.55;4.63;;;;;;;;;;5017620;28;20029;-60
2022/05/22 13:43:32;;;;;;;7.97;3.20;;;;;;;;;;4991601;28;20052;-61
2022/05/22 13:46:35;;;;;;;6.65;3.28;;;;;;;;;;5029304;28;20045;-60
2022/05/22 13:49:23;;;;;;;7.57;3.35;;;;;;;;;;5026524;28;20100;-60
2022/05/22 13:55:05;;;;;;;7.60;3.63;;;;;;;;;;5028525;28;20306;-60
2022/05/22 13:57:34;;;;;;;6.57;3.60;;;;;;;;;;5029771;28;20069;-61
2022/05/22 14:00:08;;;;;;;9.05;4.07;;;;;;;;;;5031686;28;20116;-61
2022/05/22 14:02:57;;;;;;;11.05;3.20;;;;;;;;;;5025331;28;20038;-60
2022/05/22 14:05:32;;;;;;;6.18;3.33;;;;;;;;;;5020643;28;20108;-59
2022/05/22 14:07:58;;;;;;;7.20;3.00;;;;;;;;;;5012177;28;20486;-60
2022/05/22 14:10:42;;;;;;;8.93;3.70;;;;;;;;;;5018174;28;20037;-59
2022/05/22 14:13:10;;;;;;;7.15;3.20;;;;;;;;;;5013219;28;20037;-60
2022/05/22 14:15:36;;;;;;;8.35;3.30;;;;;;;;;;5023000;28;20116;-62
2022/05/22 14:18:12;;;;;;;8.30;4.15;;;;;;;;;;5027572;28;20118;-61
2022/05/22 14:20:41;;;;;;;7.00;3.55;;;;;;;;;;5029090;28;20052;-61
2022/05/22 14:23:25;;;;;;;7.03;3.53;;;;;;;;;;5030530;28;20116;-61
2022/05/22 14:26:13;;;;;;;7.63;3.83;;;;;;;;;;5015181;28;20061;-61
2022/05/22 14:28:45;;;;;;;7.15;3.80;;;;;;;;;;5029711;28;20095;-60
2022/05/22 14:31:16;;;;;;;6.75;3.35;;;;;;;;;;5031087;28;20466;-60
2022/05/22 14:33:42;;;;;;;11.30;3.83;;;;;;;;;;5021447;28;20041;-61
2022/05/22 14:36:20;;;;;;;7.53;3.60;;;;;;;;;;5031152;28;20034;-60
2022/05/22 14:38:48;;;;;;;10.55;4.78;;;;;;;;;;5029206;28;20033;-61
2022/05/22 14:41:17;;;;;;;10.68;6.93;;;;;;;;;;5030723;28;20025;-61
2022/05/22 14:43:54;;;;;;;5.15;3.00;;;;;;;;;;5006331;28;20037;-61
2022/05/22 14:46:37;;;;;;;6.35;3.72;;;;;;;;;;5010752;28;20065;-60
2022/05/22 14:49:16;;;;;;;6.63;3.92;;;;;;;;;;4995491;28;20030;-61
2022/05/22 14:51:51;;;;;;;9.47;5.13;;;;;;;;;;5029153;28;20079;-60
2022/05/22 14:54:34;;;;;;;7.97;4.00;;;;;;;;;;5022110;28;20033;-61
2022/05/22 14:57:05;;;;;;;7.97;4.55;;;;;;;;;;5030610;28;20431;-61
2022/05/22 14:59:42;;;;;;;10.50;4.32;;;;;;;;;;5013317;28;20462;-59
2022/05/22 15:02:19;;;;;;;7.57;4.45;;;;;;;;;;5010651;28;20073;-58
2022/05/22 15:04:45;;;;;;;8.80;4.75;;;;;;;;;;5028911;28;20045;-57
2022/05/22 15:07:26;;;;;;;8.50;4.65;;;;;;;;;;5029990;28;20037;-58
2022/05/22 15:10:00;;;;;;;8.30;4.30;;;;;;;;;;5011666;28;20425;-56
2022/05/22 15:12:37;;;;;;;9.43;4.80;;;;;;;;;;5011363;28;20042;-59
2022/05/22 15:15:03;;;;;;;8.52;4.95;;;;;;;;;;5016502;28;20038;-59
2022/05/22 15:17:38;;;;;;;7.20;4.40;;;;;;;;;;5012922;28;20037;-58
2022/05/22 15:20:14;;;;;;;9.80;5.60;;;;;;;;;;5001714;28;20475;-57
2022/05/22 15:25:33;;;;;;;8.50;4.53;;;;;;;;;;5024656;28;20091;-58
2022/05/22 15:27:59;;;;;;;7.90;4.53;;;;;;;;;;5034069;28;20080;-57
2022/05/22 15:30:41;;;;;;;8.60;4.03;;;;;;;;;;5032304;28;20515;-60